createdAt,value
2023-04-15T00:00:08.362Z,505.00
2023-04-15T00:01:08.306Z,511.00
2023-04-15T00:02:08.355Z,508.00
2023-04-15T00:03:08.385Z,503.00
2023-04-15T00:04:08.334Z,506.00
2023-04-15T00:05:08.307Z,505.00
2023-04-15T00:06:08.329Z,503.00
2023-04-15T00:07:08.358Z,501.00
2023-04-15T00:08:08.377Z,505.00
2023-04-15T00:09:08.402Z,504.00
2023-04-15T00:10:08.443Z,508.00
2023-04-15T00:11:08.522Z,507.00
2023-04-15T00:12:08.525Z,503.00
2023-04-15T00:13:08.549Z,504.00
2023-04-15T00:14:08.604Z,502.00
2023-04-15T00:15:08.672Z,503.00
2023-04-15T00:16:08.672Z,508.00
2023-04-15T00:17:08.700Z,508.00
2023-04-15T00:18:08.707Z,504.00
2023-04-15T00:19:08.791Z,504.00
2023-04-15T00:20:08.795Z,505.00
2023-04-15T00:21:08.867Z,506.00
2023-04-15T00:22:08.884Z,506.00
2023-04-15T00:23:08.926Z,509.00
2023-04-15T00:24:08.954Z,509.00
2023-04-15T00:25:08.986Z,503.00
2023-04-15T00:26:09.009Z,507.00
2023-04-15T00:27:09.049Z,509.00
2023-04-15T00:28:09.053Z,506.00
2023-04-15T00:29:09.108Z,508.00
2023-04-15T00:30:09.125Z,506.00
2023-04-15T00:31:09.253Z,502.00
2023-04-15T00:32:09.227Z,507.00
2023-04-15T00:33:09.266Z,505.00
2023-04-15T00:34:09.310Z,508.00
2023-04-15T00:35:09.363Z,516.00
2023-04-15T00:36:09.380Z,505.00
2023-04-15T00:37:09.422Z,504.00
2023-04-15T00:38:09.445Z,510.00
2023-04-15T00:39:09.512Z,509.00
2023-04-15T00:40:09.535Z,513.00
2023-04-15T00:41:09.549Z,512.00
2023-04-15T00:42:09.613Z,507.00
2023-04-15T00:43:09.634Z,506.00
2023-04-15T00:44:09.700Z,507.00
2023-04-15T00:45:09.739Z,512.00
2023-04-15T00:46:09.784Z,509.00
2023-04-15T00:47:09.787Z,504.00
2023-04-15T00:48:09.821Z,505.00
2023-04-15T00:49:09.866Z,508.00
2023-04-15T00:50:09.922Z,511.00
2023-04-15T00:51:09.939Z,504.00
2023-04-15T00:52:09.980Z,504.00
2023-04-15T00:53:10.007Z,505.00
2023-04-15T00:54:10.023Z,504.00
2023-04-15T00:55:10.063Z,503.00
2023-04-15T00:56:10.113Z,510.00
2023-04-15T00:57:10.153Z,509.00
2023-04-15T00:58:10.190Z,501.00
2023-04-15T00:59:10.250Z,503.00
2023-04-15T01:00:10.285Z,504.00
2023-04-15T01:01:10.359Z,507.00
2023-04-15T01:02:10.487Z,505.00
2023-04-15T01:03:10.515Z,505.00
2023-04-15T01:04:10.524Z,504.00
2023-04-15T01:05:10.467Z,512.00
2023-04-15T01:06:10.501Z,504.00
2023-04-15T01:07:10.526Z,507.00
2023-04-15T01:08:10.602Z,506.00
2023-04-15T01:09:10.630Z,509.00
2023-04-15T01:10:10.684Z,503.00
2023-04-15T01:11:10.742Z,503.00
2023-04-15T01:12:10.764Z,507.00
2023-04-15T01:13:10.781Z,507.00
2023-04-15T01:14:10.835Z,502.00
2023-04-15T01:15:10.876Z,507.00
2023-04-15T01:16:10.980Z,506.00
2023-04-15T01:17:10.980Z,501.00
2023-04-15T01:18:11.021Z,504.00
2023-04-15T01:19:11.044Z,507.00
2023-04-15T01:20:11.087Z,504.00
2023-04-15T01:21:11.134Z,505.00
2023-04-15T01:22:11.190Z,505.00
2023-04-15T01:23:11.204Z,503.00
2023-04-15T01:24:11.282Z,507.00
2023-04-15T01:25:11.287Z,509.00
2023-04-15T01:26:11.357Z,505.00
2023-04-15T01:27:11.368Z,508.00
2023-04-15T01:28:11.421Z,507.00
2023-04-15T01:29:11.459Z,510.00
2023-04-15T01:30:11.497Z,503.00
2023-04-15T01:31:11.671Z,507.00
2023-04-15T01:32:11.602Z,504.00
2023-04-15T01:33:11.667Z,505.00
2023-04-15T01:34:11.692Z,507.00
2023-04-15T01:35:11.746Z,502.00
2023-04-15T01:36:11.785Z,507.00
2023-04-15T01:37:11.793Z,505.00
2023-04-15T01:38:11.873Z,506.00
2023-04-15T01:39:11.905Z,509.00
2023-04-15T01:40:11.959Z,501.00
2023-04-15T01:41:11.985Z,504.00
2023-04-15T01:42:12.015Z,503.00
2023-04-15T01:43:12.086Z,508.00
2023-04-15T01:44:12.087Z,508.00
2023-04-15T01:45:13.873Z,505.00
2023-04-15T01:46:12.210Z,505.00
2023-04-15T01:47:12.223Z,506.00
2023-04-15T01:48:12.298Z,507.00
2023-04-15T01:49:12.313Z,508.00
2023-04-15T01:50:12.387Z,508.00
2023-04-15T01:51:12.420Z,510.00
2023-04-15T01:52:12.476Z,508.00
2023-04-15T01:53:12.492Z,507.00
2023-04-15T01:54:12.572Z,511.00
2023-04-15T01:55:12.607Z,512.00
2023-04-15T01:56:13.834Z,509.00
2023-04-15T01:57:12.682Z,511.00
2023-04-15T01:58:12.728Z,509.00
2023-04-15T01:59:12.786Z,508.00
2023-04-15T02:00:12.918Z,512.00
2023-04-15T02:01:12.928Z,509.00
2023-04-15T02:02:12.946Z,506.00
2023-04-15T02:03:13.114Z,510.00
2023-04-15T02:04:13.041Z,507.00
2023-04-15T02:05:13.073Z,508.00
2023-04-15T02:06:13.126Z,509.00
2023-04-15T02:07:13.165Z,509.00
2023-04-15T02:08:13.221Z,507.00
2023-04-15T02:09:13.296Z,511.00
2023-04-15T02:10:13.317Z,507.00
2023-04-15T02:11:13.393Z,505.00
2023-04-15T02:12:13.441Z,509.00
2023-04-15T02:13:13.470Z,509.00
2023-04-15T02:14:13.541Z,508.00
2023-04-15T02:15:13.575Z,508.00
2023-04-15T02:16:13.610Z,510.00
2023-04-15T02:17:13.683Z,510.00
2023-04-15T02:18:13.700Z,504.00
2023-04-15T02:19:13.757Z,504.00
2023-04-15T02:20:13.821Z,507.00
2023-04-15T02:21:13.830Z,506.00
2023-04-15T02:22:13.910Z,505.00
2023-04-15T02:23:13.954Z,502.00
2023-04-15T02:24:13.993Z,506.00
2023-04-15T02:25:14.023Z,508.00
2023-04-15T02:26:14.103Z,506.00
2023-04-15T02:27:14.153Z,514.00
2023-04-15T02:28:14.194Z,504.00
2023-04-15T02:29:14.236Z,511.00
2023-04-15T02:30:14.266Z,503.00
2023-04-15T02:31:14.301Z,511.00
2023-04-15T02:32:14.370Z,506.00
2023-04-15T02:33:14.422Z,507.00
2023-04-15T02:34:14.465Z,506.00
2023-04-15T02:35:14.538Z,507.00
2023-04-15T02:36:14.591Z,510.00
2023-04-15T02:37:14.627Z,503.00
2023-04-15T02:38:14.652Z,508.00
2023-04-15T02:39:14.719Z,507.00
2023-04-15T02:40:14.794Z,501.00
2023-04-15T02:41:14.815Z,506.00
2023-04-15T02:42:14.854Z,508.00
2023-04-15T02:43:14.910Z,509.00
2023-04-15T02:44:14.984Z,511.00
2023-04-15T02:45:14.990Z,502.00
2023-04-15T02:46:15.141Z,508.00
2023-04-15T02:47:15.080Z,509.00
2023-04-15T02:48:15.157Z,513.00
2023-04-15T02:49:15.204Z,512.00
2023-04-15T02:50:15.252Z,508.00
2023-04-15T02:51:15.297Z,510.00
2023-04-15T02:52:15.329Z,509.00
2023-04-15T02:53:15.413Z,509.00
2023-04-15T02:54:15.459Z,504.00
2023-04-15T02:55:15.529Z,503.00
2023-04-15T02:56:15.569Z,506.00
2023-04-15T02:57:15.606Z,505.00
2023-04-15T02:58:15.640Z,512.00
2023-04-15T02:59:15.698Z,508.00
2023-04-15T03:00:15.766Z,501.00
2023-04-15T03:01:15.841Z,509.00
2023-04-15T03:02:16.005Z,500.00
2023-04-15T03:03:16.231Z,508.00
2023-04-15T03:04:16.038Z,511.00
2023-04-15T03:05:16.044Z,508.00
2023-04-15T03:06:16.103Z,513.00
2023-04-15T03:07:16.119Z,516.00
2023-04-15T03:08:16.204Z,513.00
2023-04-15T03:09:16.248Z,504.00
2023-04-15T03:10:16.306Z,513.00
2023-04-15T03:11:16.332Z,521.00
2023-04-15T03:12:16.444Z,512.00
2023-04-15T03:13:16.444Z,513.00
2023-04-15T03:14:16.490Z,513.00
2023-04-15T03:15:16.575Z,508.00
2023-04-15T03:16:16.683Z,507.00
2023-04-15T03:17:16.666Z,510.00
2023-04-15T03:18:16.728Z,520.00
2023-04-15T03:19:16.803Z,504.00
2023-04-15T03:20:17.002Z,512.00
2023-04-15T03:21:16.909Z,515.00
2023-04-15T03:22:16.980Z,510.00
2023-04-15T03:23:17.005Z,508.00
2023-04-15T03:24:17.057Z,504.00
2023-04-15T03:25:17.151Z,509.00
2023-04-15T03:26:17.160Z,501.00
2023-04-15T03:27:17.212Z,508.00
2023-04-15T03:28:17.281Z,503.00
2023-04-15T03:29:17.334Z,506.00
2023-04-15T03:30:17.384Z,504.00
2023-04-15T03:31:17.469Z,511.00
2023-04-15T03:32:17.499Z,515.00
2023-04-15T03:33:17.565Z,504.00
2023-04-15T03:34:17.604Z,506.00
2023-04-15T03:35:17.664Z,511.00
2023-04-15T03:36:17.731Z,517.00
2023-04-15T03:37:17.787Z,511.00
2023-04-15T03:38:17.848Z,514.00
2023-04-15T03:39:17.917Z,503.00
2023-04-15T03:40:17.967Z,506.00
2023-04-15T03:41:18.013Z,506.00
2023-04-15T03:42:18.060Z,502.00
2023-04-15T03:43:18.153Z,504.00
2023-04-15T03:44:18.188Z,514.00
2023-04-15T03:45:18.235Z,501.00
2023-04-15T03:46:18.315Z,508.00
2023-04-15T03:47:18.329Z,510.00
2023-04-15T03:48:18.586Z,501.00
2023-04-15T03:49:18.457Z,500.00
2023-04-15T03:50:18.523Z,503.00
2023-04-15T03:51:18.557Z,504.00
2023-04-15T03:52:18.607Z,507.00
2023-04-15T03:53:18.675Z,509.00
2023-04-15T03:54:18.770Z,504.00
2023-04-15T03:55:18.812Z,511.00
2023-04-15T03:56:18.822Z,503.00
2023-04-15T03:57:18.922Z,506.00
2023-04-15T03:58:18.970Z,507.00
2023-04-15T03:59:19.034Z,505.00
2023-04-15T04:00:19.099Z,504.00
2023-04-15T04:01:19.149Z,505.00
2023-04-15T04:02:19.325Z,509.00
2023-04-15T04:03:19.429Z,504.00
2023-04-15T04:04:19.423Z,505.00
2023-04-15T04:05:19.358Z,508.00
2023-04-15T04:06:19.410Z,505.00
2023-04-15T04:07:19.462Z,509.00
2023-04-15T04:08:19.560Z,507.00
2023-04-15T04:09:19.584Z,506.00
2023-04-15T04:10:19.653Z,507.00
2023-04-15T04:11:19.737Z,507.00
2023-04-15T04:12:19.804Z,503.00
2023-04-15T04:13:19.853Z,507.00
2023-04-15T04:14:19.888Z,501.00
2023-04-15T04:15:19.956Z,504.00
2023-04-15T04:16:20.107Z,511.00
2023-04-15T04:17:20.089Z,502.00
2023-04-15T04:18:20.129Z,508.00
2023-04-15T04:19:20.203Z,500.00
2023-04-15T04:20:20.273Z,504.00
2023-04-15T04:21:20.307Z,505.00
2023-04-15T04:22:20.384Z,501.00
2023-04-15T04:23:20.389Z,504.00
2023-04-15T04:24:20.462Z,506.00
2023-04-15T04:25:20.560Z,505.00
2023-04-15T04:26:20.614Z,502.00
2023-04-15T04:27:20.654Z,505.00
2023-04-15T04:28:20.690Z,508.00
2023-04-15T04:29:20.772Z,505.00
2023-04-15T04:30:20.885Z,506.00
2023-04-15T04:31:20.947Z,500.00
2023-04-15T04:32:20.949Z,511.00
2023-04-15T04:33:20.992Z,504.00
2023-04-15T04:34:21.071Z,504.00
2023-04-15T04:35:21.127Z,505.00
2023-04-15T04:36:21.202Z,508.00
2023-04-15T04:37:21.232Z,509.00
2023-04-15T04:38:21.320Z,504.00
2023-04-15T04:39:21.355Z,512.00
2023-04-15T04:40:21.422Z,507.00
2023-04-15T04:41:21.513Z,506.00
2023-04-15T04:42:21.548Z,511.00
2023-04-15T04:43:21.613Z,511.00
2023-04-15T04:44:21.648Z,510.00
2023-04-15T04:45:21.750Z,510.00
2023-04-15T04:46:21.813Z,507.00
2023-04-15T04:47:21.841Z,501.00
2023-04-15T04:48:21.892Z,505.00
2023-04-15T04:49:21.946Z,510.00
2023-04-15T04:50:22.029Z,510.00
2023-04-15T04:51:22.064Z,503.00
2023-04-15T04:52:22.199Z,503.00
2023-04-15T04:53:22.157Z,506.00
2023-04-15T04:54:22.237Z,508.00
2023-04-15T04:55:22.309Z,509.00
2023-04-15T04:56:22.336Z,502.00
2023-04-15T04:57:22.388Z,502.00
2023-04-15T04:58:24.479Z,506.00
2023-04-15T04:59:22.519Z,500.00
2023-04-15T05:00:22.610Z,504.00
2023-04-15T05:01:22.717Z,504.00
2023-04-15T05:02:22.781Z,506.00
2023-04-15T05:03:22.856Z,504.00
2023-04-15T05:04:22.806Z,509.00
2023-04-15T05:05:22.867Z,510.00
2023-04-15T05:06:22.926Z,501.00
2023-04-15T05:07:22.990Z,501.00
2023-04-15T05:08:23.051Z,500.00
2023-04-15T05:09:23.111Z,508.00
2023-04-15T05:10:23.163Z,504.00
2023-04-15T05:11:23.222Z,509.00
2023-04-15T05:12:23.290Z,503.00
2023-04-15T05:13:23.350Z,503.00
2023-04-15T05:14:23.527Z,500.00
2023-04-15T05:15:23.491Z,506.00
2023-04-15T05:16:23.600Z,509.00
2023-04-15T05:17:23.680Z,506.00
2023-04-15T05:18:23.660Z,508.00
2023-04-15T05:19:23.697Z,507.00
2023-04-15T05:20:23.794Z,503.00
2023-04-15T05:21:23.805Z,503.00
2023-04-15T05:22:23.904Z,502.00
2023-04-15T05:23:23.924Z,506.00
2023-04-15T05:24:23.996Z,504.00
2023-04-15T05:25:24.068Z,504.00
2023-04-15T05:26:24.130Z,508.00
2023-04-15T05:27:24.150Z,507.00
2023-04-15T05:28:24.235Z,501.00
2023-04-15T05:29:24.279Z,508.00
2023-04-15T05:30:24.332Z,509.00
2023-04-15T05:31:24.447Z,503.00
2023-04-15T05:32:24.501Z,504.00
2023-04-15T05:33:24.508Z,507.00
2023-04-15T05:34:24.549Z,503.00
2023-04-15T05:35:24.646Z,508.00
2023-04-15T05:36:24.679Z,508.00
2023-04-15T05:37:24.733Z,514.00
2023-04-15T05:38:24.810Z,507.00
2023-04-15T05:39:24.836Z,511.00
2023-04-15T05:40:24.912Z,510.00
2023-04-15T05:41:24.974Z,508.00
2023-04-15T05:42:25.041Z,503.00
2023-04-15T05:43:25.080Z,506.00
2023-04-15T05:44:25.169Z,508.00
2023-04-15T05:45:25.205Z,500.00
2023-04-15T05:46:25.292Z,504.00
2023-04-15T05:47:25.360Z,505.00
2023-04-15T05:48:25.373Z,505.00
2023-04-15T05:49:25.448Z,505.00
2023-04-15T05:50:25.529Z,507.00
2023-04-15T05:51:25.561Z,502.00
2023-04-15T05:52:25.642Z,508.00
2023-04-15T05:53:25.718Z,502.00
2023-04-15T05:54:25.738Z,501.00
2023-04-15T05:55:25.806Z,500.00
2023-04-15T05:56:25.881Z,509.00
2023-04-15T05:57:25.914Z,511.00
2023-04-15T05:58:25.995Z,502.00
2023-04-15T05:59:26.055Z,513.00
2023-04-15T06:00:26.084Z,511.00
2023-04-15T06:01:26.162Z,509.00
2023-04-15T06:02:26.216Z,509.00
2023-04-15T06:03:26.336Z,509.00
2023-04-15T06:04:26.428Z,507.00
2023-04-15T06:05:26.408Z,507.00
2023-04-15T06:06:26.477Z,500.00
2023-04-15T06:07:26.525Z,503.00
2023-04-15T06:08:26.596Z,503.00
2023-04-15T06:09:26.647Z,504.00
2023-04-15T06:10:26.703Z,512.00
2023-04-15T06:11:26.776Z,504.00
2023-04-15T06:12:26.851Z,512.00
2023-04-15T06:13:26.867Z,507.00
2023-04-15T06:14:26.946Z,508.00
2023-04-15T06:15:26.996Z,504.00
2023-04-15T06:16:27.083Z,500.00
2023-04-15T06:17:27.122Z,505.00
2023-04-15T06:18:27.195Z,506.00
2023-04-15T06:19:27.210Z,503.00
2023-04-15T06:20:27.298Z,509.00
2023-04-15T06:21:27.362Z,509.00
2023-04-15T06:22:27.392Z,504.00
2023-04-15T06:23:28.055Z,503.00
2023-04-15T06:24:27.533Z,500.00
2023-04-15T06:25:27.609Z,506.00
2023-04-15T06:26:27.669Z,501.00
2023-04-15T06:27:27.734Z,506.00
2023-04-15T06:28:27.764Z,504.00
2023-04-15T06:29:27.851Z,500.00
2023-04-15T06:30:27.968Z,506.00
2023-04-15T06:31:28.002Z,505.00
2023-04-15T06:32:28.000Z,506.00
2023-04-15T06:33:28.065Z,505.00
2023-04-15T06:34:28.101Z,507.00
2023-04-15T06:35:28.187Z,500.00
2023-04-15T06:36:28.242Z,510.00
2023-04-15T06:37:28.267Z,505.00
2023-04-15T06:38:28.336Z,505.00
2023-04-15T06:39:28.400Z,508.00
2023-04-15T06:40:28.474Z,511.00
2023-04-15T06:41:28.481Z,503.00
2023-04-15T06:42:28.555Z,506.00
2023-04-15T06:43:28.611Z,510.00
2023-04-15T06:44:28.635Z,501.00
2023-04-15T06:45:28.702Z,512.00
2023-04-15T06:46:28.755Z,509.00
2023-04-15T06:47:28.853Z,509.00
2023-04-15T06:48:28.861Z,505.00
2023-04-15T06:49:28.910Z,511.00
2023-04-15T06:50:28.972Z,500.00
2023-04-15T06:51:29.032Z,507.00
2023-04-15T06:52:29.119Z,514.00
2023-04-15T06:53:29.164Z,511.00
2023-04-15T06:54:29.200Z,512.00
2023-04-15T06:55:29.240Z,505.00
2023-04-15T06:56:29.282Z,516.00
2023-04-15T06:57:29.358Z,519.00
2023-04-15T06:58:29.388Z,522.00
2023-04-15T06:59:29.482Z,522.00
2023-04-15T07:00:29.599Z,518.00
2023-04-15T07:01:29.645Z,522.00
2023-04-15T07:02:29.750Z,518.00
2023-04-15T07:03:31.398Z,518.00
2023-04-15T07:04:29.741Z,518.00
2023-04-15T07:05:29.653Z,523.00
2023-04-15T07:06:29.644Z,518.00
2023-04-15T07:07:29.632Z,517.00
2023-04-15T07:08:29.635Z,517.00
2023-04-15T07:09:29.615Z,524.00
2023-04-15T07:10:29.685Z,521.00
2023-04-15T07:11:29.582Z,516.00
2023-04-15T07:12:29.564Z,515.00
2023-04-15T07:13:29.565Z,508.00
2023-04-15T07:14:29.572Z,513.00
2023-04-15T07:15:29.590Z,517.00
2023-04-15T07:16:30.115Z,511.00
2023-04-15T07:17:29.630Z,514.00
2023-04-15T07:18:29.558Z,517.00
2023-04-15T07:19:29.533Z,513.00
2023-04-15T07:20:29.529Z,510.00
2023-04-15T07:21:29.540Z,513.00
2023-04-15T07:22:29.485Z,516.00
2023-04-15T07:23:29.533Z,508.00
2023-04-15T07:24:29.469Z,510.00
2023-04-15T07:25:29.468Z,504.00
2023-04-15T07:26:29.481Z,504.00
2023-04-15T07:27:29.505Z,505.00
2023-04-15T07:28:29.463Z,509.00
2023-04-15T07:29:29.456Z,509.00
2023-04-15T07:30:29.446Z,508.00
2023-04-15T07:31:29.582Z,508.00
2023-04-15T07:32:30.002Z,508.00
2023-04-15T07:33:29.447Z,507.00
2023-04-15T07:34:31.362Z,505.00
2023-04-15T07:35:29.442Z,518.00
2023-04-15T07:36:29.399Z,513.00
2023-04-15T07:37:29.395Z,511.00
2023-04-15T07:38:29.410Z,512.00
2023-04-15T07:39:29.399Z,512.00
2023-04-15T07:40:29.431Z,514.00
2023-04-15T07:41:29.370Z,505.00
2023-04-15T07:42:29.401Z,509.00
2023-04-15T07:43:29.399Z,508.00
2023-04-15T07:44:29.381Z,519.00
2023-04-15T07:45:29.385Z,519.00
2023-04-15T07:46:29.357Z,518.00
2023-04-15T07:47:29.378Z,512.00
2023-04-15T07:48:29.369Z,517.00
2023-04-15T07:49:29.344Z,518.00
2023-04-15T07:50:29.343Z,512.00
2023-04-15T07:51:29.338Z,513.00
2023-04-15T07:52:29.310Z,513.00
2023-04-15T07:53:29.342Z,513.00
2023-04-15T07:54:29.299Z,507.00
2023-04-15T07:55:29.309Z,509.00
2023-04-15T07:56:29.298Z,516.00
2023-04-15T07:57:29.264Z,507.00
2023-04-15T07:58:29.288Z,510.00
2023-04-15T07:59:29.285Z,503.00
2023-04-15T08:00:29.284Z,508.00
2023-04-15T08:01:29.257Z,507.00
2023-04-15T08:02:29.336Z,505.00
2023-04-15T08:03:29.459Z,508.00
2023-04-15T08:04:29.356Z,509.00
2023-04-15T08:05:29.219Z,513.00
2023-04-15T08:06:29.997Z,509.00
2023-04-15T08:07:29.218Z,516.00
2023-04-15T08:08:29.186Z,503.00
2023-04-15T08:09:29.282Z,519.00
2023-04-15T08:10:29.181Z,520.00
2023-04-15T08:11:29.191Z,524.00
2023-04-15T08:12:29.144Z,519.00
2023-04-15T08:13:29.189Z,516.00
2023-04-15T08:14:29.136Z,516.00
2023-04-15T08:15:29.167Z,517.00
2023-04-15T08:16:29.148Z,515.00
2023-04-15T08:17:29.178Z,516.00
2023-04-15T08:18:29.133Z,514.00
2023-04-15T08:19:29.121Z,518.00
2023-04-15T08:20:29.097Z,516.00
2023-04-15T08:21:29.108Z,514.00
2023-04-15T08:22:29.104Z,508.00
2023-04-15T08:23:29.091Z,510.00
2023-04-15T08:24:29.073Z,512.00
2023-04-15T08:25:29.096Z,507.00
2023-04-15T08:26:29.149Z,505.00
2023-04-15T08:27:29.161Z,506.00
2023-04-15T08:28:29.191Z,502.00
2023-04-15T08:29:29.237Z,505.00
2023-04-15T08:30:29.286Z,511.00
2023-04-15T08:31:29.303Z,514.00
2023-04-15T08:32:29.338Z,510.00
2023-04-15T08:33:29.376Z,503.00
2023-04-15T08:34:29.404Z,505.00
2023-04-15T08:35:29.438Z,504.00
2023-04-15T08:36:29.498Z,506.00
2023-04-15T08:37:29.526Z,505.00
2023-04-15T08:38:29.568Z,502.00
2023-04-15T08:39:29.601Z,500.00
2023-04-15T08:40:29.602Z,515.00
2023-04-15T08:41:29.635Z,508.00
2023-04-15T08:42:29.669Z,513.00
2023-04-15T08:43:29.712Z,512.00
2023-04-15T08:44:29.784Z,518.00
2023-04-15T08:45:29.790Z,509.00
2023-04-15T08:46:29.842Z,519.00
2023-04-15T08:47:29.915Z,526.00
2023-04-15T08:48:29.889Z,529.00
2023-04-15T08:49:29.930Z,522.00
2023-04-15T08:50:29.967Z,523.00
2023-04-15T08:51:30.005Z,524.00
2023-04-15T08:52:30.050Z,524.00
2023-04-15T08:53:30.063Z,521.00
2023-04-15T08:54:30.074Z,523.00
2023-04-15T08:55:30.119Z,520.00
2023-04-15T08:56:30.197Z,519.00
2023-04-15T08:57:30.197Z,523.00
2023-04-15T08:58:30.247Z,514.00
2023-04-15T08:59:30.243Z,521.00
2023-04-15T09:00:30.315Z,527.00
2023-04-15T09:01:30.430Z,511.00
2023-04-15T09:02:30.501Z,523.00
2023-04-15T09:03:30.446Z,512.00
2023-04-15T09:04:30.432Z,520.00
2023-04-15T09:05:30.484Z,519.00
2023-04-15T09:06:30.537Z,518.00
2023-04-15T09:07:30.535Z,513.00
2023-04-15T09:08:30.567Z,514.00
2023-04-15T09:09:30.585Z,509.00
2023-04-15T09:10:30.653Z,515.00
2023-04-15T09:11:30.668Z,507.00
2023-04-15T09:12:30.709Z,509.00
2023-04-15T09:13:30.757Z,509.00
2023-04-15T09:14:30.763Z,507.00
2023-04-15T09:15:30.816Z,503.00
2023-04-15T09:16:30.874Z,503.00
2023-04-15T09:17:30.900Z,504.00
2023-04-15T09:18:30.946Z,505.00
2023-04-15T09:19:30.931Z,512.00
2023-04-15T09:20:31.007Z,514.00
2023-04-15T09:21:31.004Z,504.00
2023-04-15T09:22:31.055Z,516.00
2023-04-15T09:23:31.098Z,524.00
2023-04-15T09:24:31.142Z,524.00
2023-04-15T09:25:33.508Z,524.00
2023-04-15T09:26:31.145Z,532.00
2023-04-15T09:27:31.142Z,516.00
2023-04-15T09:28:31.153Z,525.00
2023-04-15T09:29:31.157Z,518.00
2023-04-15T09:30:31.195Z,514.00
2023-04-15T09:31:31.131Z,505.00
2023-04-15T09:32:31.180Z,511.00
2023-04-15T09:33:31.119Z,511.00
2023-04-15T09:34:31.098Z,515.00
2023-04-15T09:35:31.087Z,512.00
2023-04-15T09:36:31.120Z,511.00
2023-04-15T09:37:32.582Z,526.00
2023-04-15T09:38:31.045Z,528.00
2023-04-15T09:39:31.074Z,523.00
2023-04-15T09:40:31.060Z,515.00
2023-04-15T09:41:31.055Z,518.00
2023-04-15T09:42:31.048Z,511.00
2023-04-15T09:43:31.033Z,517.00
2023-04-15T09:44:31.015Z,515.00
2023-04-15T09:45:31.008Z,522.00
2023-04-15T09:46:31.017Z,517.00
2023-04-15T09:47:31.056Z,501.00
2023-04-15T09:48:30.992Z,511.00
2023-04-15T09:49:31.065Z,521.00
2023-04-15T09:50:31.014Z,520.00
2023-04-15T09:51:30.984Z,520.00
2023-04-15T09:52:30.944Z,513.00
2023-04-15T09:53:31.816Z,511.00
2023-04-15T09:54:30.952Z,510.00
2023-04-15T09:55:30.968Z,513.00
2023-04-15T09:56:30.946Z,526.00
2023-04-15T09:57:30.951Z,518.00
2023-04-15T09:58:30.991Z,523.00
2023-04-15T09:59:31.081Z,527.00
2023-04-15T10:00:31.081Z,512.00
2023-04-15T10:01:31.185Z,520.00
2023-04-15T10:02:31.272Z,525.00
2023-04-15T10:03:31.239Z,526.00
2023-04-15T10:04:31.226Z,528.00
2023-04-15T10:05:31.354Z,520.00
2023-04-15T10:06:31.291Z,526.00
2023-04-15T10:07:31.308Z,530.00
2023-04-15T10:08:31.370Z,536.00
2023-04-15T10:09:31.361Z,540.00
2023-04-15T10:10:31.412Z,535.00
2023-04-15T10:11:31.783Z,537.00
2023-04-15T10:12:31.486Z,527.00
2023-04-15T10:13:31.520Z,538.00
2023-04-15T10:14:31.577Z,537.00
2023-04-15T10:15:31.640Z,537.00
2023-04-15T10:16:31.673Z,534.00
2023-04-15T10:17:31.854Z,537.00
2023-04-15T10:18:31.707Z,537.00
2023-04-15T10:19:31.716Z,541.00
2023-04-15T10:20:31.752Z,534.00
2023-04-15T10:21:31.775Z,536.00
2023-04-15T10:22:31.826Z,538.00
2023-04-15T10:23:31.879Z,540.00
2023-04-15T10:24:31.856Z,540.00
2023-04-15T10:25:31.940Z,542.00
2023-04-15T10:26:31.927Z,538.00
2023-04-15T10:27:31.995Z,548.00
2023-04-15T10:28:32.017Z,546.00
2023-04-15T10:29:32.011Z,539.00
2023-04-15T10:30:32.078Z,538.00
2023-04-15T10:31:32.125Z,544.00
2023-04-15T10:32:32.149Z,543.00
2023-04-15T10:33:32.117Z,543.00
2023-04-15T10:34:32.188Z,532.00
2023-04-15T10:35:32.213Z,532.00
2023-04-15T10:36:32.185Z,534.00
2023-04-15T10:37:32.245Z,532.00
2023-04-15T10:38:32.255Z,527.00
2023-04-15T10:39:32.283Z,528.00
2023-04-15T10:40:32.329Z,536.00
2023-04-15T10:41:32.351Z,538.00
2023-04-15T10:42:32.376Z,537.00
2023-04-15T10:43:32.372Z,532.00
2023-04-15T10:44:32.399Z,533.00
2023-04-15T10:45:32.432Z,533.00
2023-04-15T10:46:32.450Z,535.00
2023-04-15T10:47:32.466Z,532.00
2023-04-15T10:48:32.471Z,537.00
2023-04-15T10:49:32.461Z,537.00
2023-04-15T10:50:32.508Z,544.00
2023-04-15T10:51:32.515Z,538.00
2023-04-15T10:52:32.517Z,539.00
2023-04-15T10:53:32.563Z,537.00
2023-04-15T10:54:32.586Z,545.00
2023-04-15T10:55:32.604Z,544.00
2023-04-15T10:56:32.627Z,545.00
2023-04-15T10:57:32.643Z,546.00
2023-04-15T10:58:32.665Z,541.00
2023-04-15T10:59:32.705Z,547.00
2023-04-15T11:00:32.730Z,547.00
2023-04-15T11:01:32.739Z,546.00
2023-04-15T11:02:32.939Z,544.00
2023-04-15T11:03:32.923Z,543.00
2023-04-15T11:04:32.858Z,539.00
2023-04-15T11:05:32.850Z,544.00
2023-04-15T11:06:32.810Z,544.00
2023-04-15T11:07:32.819Z,543.00
2023-04-15T11:08:32.862Z,547.00
2023-04-15T11:09:32.882Z,541.00
2023-04-15T11:10:32.900Z,545.00
2023-04-15T11:11:32.949Z,549.00
2023-04-15T11:12:33.007Z,544.00
2023-04-15T11:13:32.956Z,544.00
2023-04-15T11:14:33.000Z,551.00
2023-04-15T11:15:32.984Z,546.00
2023-04-15T11:16:33.104Z,538.00
2023-04-15T11:17:33.036Z,545.00
2023-04-15T11:18:33.098Z,549.00
2023-04-15T11:19:33.044Z,545.00
2023-04-15T11:20:33.092Z,550.00
2023-04-15T11:21:33.078Z,540.00
2023-04-15T11:22:33.120Z,545.00
2023-04-15T11:23:33.125Z,538.00
2023-04-15T11:24:33.104Z,546.00
2023-04-15T11:25:33.154Z,554.00
2023-04-15T11:26:33.117Z,548.00
2023-04-15T11:27:33.162Z,549.00
2023-04-15T11:28:33.150Z,547.00
2023-04-15T11:29:33.194Z,549.00
2023-04-15T11:30:33.221Z,551.00
2023-04-15T11:31:33.250Z,549.00
2023-04-15T11:32:33.216Z,546.00
2023-04-15T11:33:33.226Z,548.00
2023-04-15T11:34:34.156Z,555.00
2023-04-15T11:35:33.229Z,555.00
2023-04-15T11:36:33.241Z,553.00
2023-04-15T11:37:33.265Z,554.00
2023-04-15T11:38:33.302Z,549.00
2023-04-15T11:39:33.275Z,554.00
2023-04-15T11:40:33.329Z,553.00
2023-04-15T11:41:33.308Z,550.00
2023-04-15T11:42:43.125Z,548.00
2023-04-15T11:43:34.341Z,549.00
2023-04-15T11:44:33.321Z,551.00
2023-04-15T11:45:33.351Z,552.00
2023-04-15T11:46:33.308Z,556.00
2023-04-15T11:47:33.320Z,557.00
2023-04-15T11:48:33.299Z,561.00
2023-04-15T11:49:33.254Z,563.00
2023-04-15T11:50:33.302Z,564.00
2023-04-15T11:51:33.273Z,566.00
2023-04-15T11:52:33.272Z,568.00
2023-04-15T11:53:33.240Z,567.00
2023-04-15T11:54:33.258Z,564.00
2023-04-15T11:55:33.233Z,578.00
2023-04-15T11:56:33.248Z,565.00
2023-04-15T11:57:33.236Z,568.00
2023-04-15T11:58:33.217Z,563.00
2023-04-15T11:59:44.522Z,570.00
2023-04-15T12:00:34.223Z,570.00
2023-04-15T12:01:33.206Z,570.00
2023-04-15T12:02:33.317Z,571.00
2023-04-15T12:03:33.325Z,571.00
2023-04-15T12:04:33.310Z,570.00
2023-04-15T12:05:33.172Z,577.00
2023-04-15T12:06:33.162Z,568.00
2023-04-15T12:07:33.162Z,569.00
2023-04-15T12:08:33.145Z,576.00
2023-04-15T12:09:33.140Z,574.00
2023-04-15T12:10:33.142Z,569.00
2023-04-15T12:11:33.141Z,578.00
2023-04-15T12:12:33.125Z,568.00
2023-04-15T12:13:33.131Z,578.00
2023-04-15T12:14:33.157Z,574.00
2023-04-15T12:15:33.161Z,580.00
2023-04-15T12:16:34.585Z,582.00
2023-04-15T12:17:50.991Z,585.00
2023-04-15T12:18:34.097Z,585.00
2023-04-15T12:19:33.051Z,586.00
2023-04-15T12:20:33.065Z,586.00
2023-04-15T12:21:33.050Z,586.00
2023-04-15T12:22:33.049Z,589.00
2023-04-15T12:23:33.032Z,583.00
2023-04-15T12:24:33.067Z,586.00
2023-04-15T12:25:33.010Z,578.00
2023-04-15T12:26:33.051Z,576.00
2023-04-15T12:27:33.006Z,584.00
2023-04-15T12:28:32.981Z,578.00